Time;durP1;ratioP1;P1;durP2;ratioP2;P2;SDS_P1;SDS_P2;PMS_P1;PMS_P2;Temp;Humidity;BMP_temperature;BMP_pressure;BME280_temperature;BME280_humidity;BME280_pressure;Samples;Min_cycle;Max_cycle;Signal;HPM_P1;HPM_P2
2021/06/04 00:01:05;;;;;;;34.90;31.70;;;19.00;99.90;;;;;;5099782;28;20456;-73
2021/06/04 00:03:31;;;;;;;32.47;29.50;;;19.00;99.90;;;;;;5097360;28;20477;-73
2021/06/04 00:05:58;;;;;;;32.40;29.50;;;19.00;99.90;;;;;;5097505;28;20834;-76
2021/06/04 00:08:25;;;;;;;31.70;28.63;;;19.00;99.90;;;;;;5100505;28;20828;-73
2021/06/04 00:10:55;;;;;;;31.50;28.57;;;19.00;99.90;;;;;;5103806;28;20529;-73
2021/06/04 00:13:27;;;;;;;32.57;29.47;;;19.00;99.90;;;;;;5100442;28;20458;-71
2021/06/04 00:15:56;;;;;;;30.47;27.87;;;18.90;99.90;;;;;;5101261;28;20463;-73
2021/06/04 00:18:25;;;;;;;31.50;28.57;;;19.00;99.90;;;;;;5100363;28;20471;-73
2021/06/04 00:20:52;;;;;;;34.13;31.13;;;19.00;99.90;;;;;;5098802;28;20464;-75
2021/06/04 00:23:19;;;;;;;33.97;30.67;;;19.00;99.90;;;;;;5105159;28;20833;-74
2021/06/04 00:25:45;;;;;;;34.10;30.73;;;19.00;99.90;;;;;;5098846;28;20454;-73
2021/06/04 00:28:11;;;;;;;34.33;30.90;;;19.00;99.90;;;;;;5101218;28;20872;-73
2021/06/04 00:30:38;;;;;;;36.50;33.27;;;18.90;99.90;;;;;;5100520;28;20473;-73
2021/06/04 00:33:05;;;;;;;37.90;34.30;;;18.80;99.90;;;;;;5104055;28;20456;-73
2021/06/04 00:35:34;;;;;;;37.33;33.83;;;18.70;99.90;;;;;;5095180;28;20468;-73
2021/06/04 00:38:01;;;;;;;35.77;32.40;;;18.60;99.90;;;;;;5101995;28;20465;-74
2021/06/04 00:40:30;;;;;;;36.93;33.47;;;18.50;99.90;;;;;;5102755;28;20457;-75
2021/06/04 00:42:57;;;;;;;38.83;34.87;;;18.50;99.90;;;;;;5096544;28;20462;-73
2021/06/04 00:45:26;;;;;;;37.33;33.63;;;18.40;99.90;;;;;;5100183;28;20476;-73
2021/06/04 00:47:53;;;;;;;35.60;31.90;;;18.40;99.90;;;;;;5101124;28;20982;-75
2021/06/04 00:50:31;;;;;;;33.37;30.27;;;18.40;99.90;;;;;;5098003;28;20466;-73
2021/06/04 00:53:01;;;;;;;34.70;31.17;;;18.30;99.90;;;;;;5092486;28;20558;-74
2021/06/04 00:55:28;;;;;;;33.70;30.57;;;18.30;99.90;;;;;;5101765;28;20450;-77
2021/06/04 00:57:54;;;;;;;34.03;30.77;;;18.30;99.90;;;;;;5103520;28;20739;-77
2021/06/04 01:00:29;;;;;;;32.60;29.40;;;18.30;99.90;;;;;;5098190;28;20850;-74
2021/06/04 01:02:56;;;;;;;30.63;28.10;;;18.40;99.90;;;;;;5096079;28;20931;-73
2021/06/04 01:05:24;;;;;;;31.87;28.77;;;18.40;99.90;;;;;;5096908;28;20487;-73
2021/06/04 01:08:11;;;;;;;30.90;28.07;;;18.40;99.90;;;;;;5098808;28;20497;-73
2021/06/04 01:10:50;;;;;;;38.17;34.30;;;18.40;99.90;;;;;;5094910;28;20612;-74
2021/06/04 01:13:21;;;;;;;38.57;34.50;;;18.50;99.90;;;;;;5100301;28;20461;-74
2021/06/04 01:16:05;;;;;;;37.60;34.10;;;18.50;99.90;;;;;;5100241;28;20634;-74
2021/06/04 01:18:42;;;;;;;38.17;34.57;;;18.60;99.90;;;;;;5095533;28;20833;-74
2021/06/04 01:21:13;;;;;;;38.97;35.17;;;18.60;99.90;;;;;;5100710;28;20481;-73
2021/06/04 01:24:04;;;;;;;39.73;35.53;;;18.60;99.90;;;;;;5102042;28;20489;-75
2021/06/04 01:26:36;;;;;;;47.17;37.20;;;18.60;99.90;;;;;;5100947;28;20488;-75
2021/06/04 01:29:09;;;;;;;41.90;36.57;;;18.50;99.90;;;;;;5098893;28;20476;-73
2021/06/04 01:31:41;;;;;;;41.80;37.10;;;18.50;99.90;;;;;;5101859;28;20510;-73
2021/06/04 01:34:13;;;;;;;46.57;39.00;;;18.50;99.90;;;;;;5099146;28;20462;-73
2021/06/04 01:36:44;;;;;;;42.63;38.23;;;18.50;99.90;;;;;;5092543;28;20468;-78
2021/06/04 01:39:15;;;;;;;41.40;36.80;;;18.60;99.90;;;;;;5101617;28;20486;-76
2021/06/04 01:41:46;;;;;;;42.73;37.97;;;18.70;99.90;;;;;;5094020;28;20470;-73
2021/06/04 01:44:18;;;;;;;42.80;38.30;;;18.70;99.90;;;;;;5098429;28;20465;-76
2021/06/04 01:46:49;;;;;;;44.03;39.63;;;18.70;99.90;;;;;;5097674;28;20472;-75
2021/06/04 01:49:19;;;;;;;47.50;41.67;;;18.60;99.90;;;;;;5100817;28;20453;-72
2021/06/04 01:51:58;;;;;;;51.70;41.23;;;18.60;99.90;;;;;;5100358;28;20465;-77
2021/06/04 01:54:31;;;;;;;44.73;37.30;;;18.60;99.90;;;;;;5097891;28;20465;-73
2021/06/04 01:57:04;;;;;;;47.37;38.03;;;18.50;99.90;;;;;;5101126;28;20487;-73
2021/06/04 01:59:33;;;;;;;45.13;38.40;;;18.40;99.90;;;;;;5097005;28;20555;-74
2021/06/04 02:02:01;;;;;;;45.43;40.63;;;18.50;99.90;;;;;;5098236;28;21094;-76
2021/06/04 02:04:29;;;;;;;46.73;40.67;;;18.50;99.90;;;;;;5098039;28;20472;-73
2021/06/04 02:06:57;;;;;;;46.93;42.00;;;18.60;99.90;;;;;;5096222;28;20485;-76
2021/06/04 02:09:26;;;;;;;47.10;42.33;;;18.60;99.90;;;;;;5098733;28;20464;-73
2021/06/04 02:11:53;;;;;;;51.17;43.27;;;18.60;99.90;;;;;;5090859;28;21292;-73
2021/06/04 02:14:27;;;;;;;44.30;39.53;;;18.50;99.90;;;;;;5099415;28;20687;-72
2021/06/04 02:17:12;;;;;;;39.30;35.13;;;18.40;99.90;;;;;;5097652;28;20461;-72
2021/06/04 02:19:48;;;;;;;35.80;32.43;;;18.30;99.90;;;;;;5095343;28;20508;-74
2021/06/04 02:22:21;;;;;;;43.47;39.03;;;18.20;99.90;;;;;;5098211;28;20493;-73
2021/06/04 02:24:57;;;;;;;51.47;44.50;;;18.30;99.90;;;;;;5093059;28;20465;-73
2021/06/04 02:27:30;;;;;;;48.83;43.33;;;18.30;99.90;;;;;;5100100;28;20576;-75
2021/06/04 02:30:11;;;;;;;56.23;44.73;;;18.30;99.90;;;;;;5092762;28;20458;-74
2021/06/04 02:32:41;;;;;;;55.77;45.80;;;18.30;99.90;;;;;;5094962;28;20472;-74
2021/06/04 02:35:13;;;;;;;57.37;45.43;;;18.20;99.90;;;;;;5097326;28;20463;-77
2021/06/04 02:37:43;;;;;;;53.63;42.40;;;18.20;99.90;;;;;;5094247;28;20462;-75
2021/06/04 02:40:15;;;;;;;61.37;48.60;;;18.10;99.90;;;;;;5096447;28;20465;-73
2021/06/04 02:42:45;;;;;;;53.50;47.40;;;18.00;99.90;;;;;;5102561;28;21282;-75
2021/06/04 02:45:20;;;;;;;64.17;50.17;;;18.00;99.90;;;;;;5094193;28;20536;-73
2021/06/04 02:47:50;;;;;;;63.93;47.67;;;18.00;99.90;;;;;;5095635;28;20488;-74
2021/06/04 02:50:25;;;;;;;64.10;48.73;;;18.00;99.90;;;;;;5087970;28;20459;-73
2021/06/04 02:52:51;;;;;;;56.17;48.50;;;18.00;99.90;;;;;;5096696;28;20477;-74
2021/06/04 02:55:22;;;;;;;55.53;46.87;;;18.00;99.90;;;;;;5101174;28;20554;-73
2021/06/04 02:57:49;;;;;;;59.23;48.70;;;18.00;99.90;;;;;;5098670;28;20484;-74
2021/06/04 03:00:24;;;;;;;62.97;49.17;;;18.00;99.90;;;;;;5096277;28;20471;-73
2021/06/04 03:02:51;;;;;;;61.60;48.40;;;18.00;99.90;;;;;;5103650;28;20719;-73
2021/06/04 03:05:21;;;;;;;69.70;50.50;;;18.10;99.90;;;;;;5101317;28;20532;-73
2021/06/04 03:07:48;;;;;;;61.63;49.13;;;18.00;99.90;;;;;;5099181;28;20755;-74
2021/06/04 03:10:21;;;;;;;61.43;48.93;;;18.10;99.90;;;;;;5099023;28;20465;-73
2021/06/04 03:12:50;;;;;;;70.33;50.87;;;18.10;99.90;;;;;;5103007;28;20470;-74
2021/06/04 03:15:23;;;;;;;56.53;47.57;;;18.20;99.90;;;;;;5102210;28;20464;-73
2021/06/04 03:17:50;;;;;;;66.53;51.87;;;18.20;99.90;;;;;;5099960;28;20485;-73
2021/06/04 03:20:22;;;;;;;55.17;45.90;;;18.20;99.90;;;;;;5097543;28;20457;-77
2021/06/04 03:22:48;;;;;;;50.77;45.43;;;18.30;99.90;;;;;;5096200;28;20495;-73
2021/06/04 03:25:20;;;;;;;59.87;52.23;;;18.30;99.90;;;;;;5091814;28;20458;-75
2021/06/04 03:27:47;;;;;;;59.23;49.33;;;18.30;99.90;;;;;;5104235;28;20553;-73
2021/06/04 03:30:16;;;;;;;66.00;53.20;;;18.40;99.90;;;;;;5098356;28;21063;-73
2021/06/04 03:32:46;;;;;;;54.07;46.30;;;18.40;99.90;;;;;;5097177;28;20988;-74
2021/06/04 03:35:13;;;;;;;66.50;51.23;;;18.40;99.90;;;;;;5099652;28;20464;-77
2021/06/04 03:37:40;;;;;;;63.73;50.53;;;18.40;99.90;;;;;;5097423;28;20995;-74
2021/06/04 03:40:11;;;;;;;70.83;52.73;;;18.30;99.90;;;;;;5102715;28;20464;-73
2021/06/04 03:42:38;;;;;;;61.73;50.50;;;18.30;99.90;;;;;;5105039;28;20456;-73
2021/06/04 03:45:07;;;;;;;57.90;48.60;;;18.30;99.90;;;;;;5099020;28;20514;-73
2021/06/04 03:47:35;;;;;;;62.43;50.20;;;18.30;99.90;;;;;;5099324;28;20459;-73
2021/06/04 03:50:04;;;;;;;68.73;50.47;;;18.30;99.90;;;;;;5098938;28;20540;-76
2021/06/04 03:52:31;;;;;;;68.10;51.03;;;18.20;99.90;;;;;;5103835;28;20468;-73
2021/06/04 03:55:00;;;;;;;68.40;51.07;;;18.20;99.90;;;;;;5106966;28;20462;-73
2021/06/04 03:57:28;;;;;;;64.13;50.77;;;18.30;99.90;;;;;;5099682;28;20496;-73
2021/06/04 03:59:55;;;;;;;64.37;49.80;;;18.30;99.90;;;;;;5100553;28;20519;-73
2021/06/04 04:02:23;;;;;;;74.27;51.23;;;18.20;99.90;;;;;;5101870;28;20836;-73
2021/06/04 04:04:56;;;;;;;59.60;50.63;;;18.30;99.90;;;;;;5098714;28;20513;-77
2021/06/04 04:07:26;;;;;;;74.80;50.27;;;18.30;99.90;;;;;;5096426;28;20484;-74
2021/06/04 04:09:53;;;;;;;102.27;54.10;;;18.20;99.90;;;;;;5104287;28;20944;-73
2021/06/04 04:12:19;;;;;;;86.73;52.33;;;18.20;99.90;;;;;;5101517;28;20544;-73
2021/06/04 04:14:46;;;;;;;442.83;59.30;;;18.10;99.90;;;;;;5101863;28;20492;-73
2021/06/04 04:17:12;;;;;;;70.53;50.80;;;18.10;99.90;;;;;;5096398;28;20980;-73
2021/06/04 04:19:38;;;;;;;75.50;53.63;;;18.10;99.90;;;;;;5098199;28;20465;-76
2021/06/04 04:22:06;;;;;;;101.33;55.37;;;18.10;99.90;;;;;;5099533;28;20487;-73
2021/06/04 04:24:36;;;;;;;76.03;52.67;;;18.10;99.90;;;;;;5098887;28;20460;-74
2021/06/04 04:27:04;;;;;;;99.47;52.53;;;18.10;99.90;;;;;;5103046;28;20472;-76
2021/06/04 04:29:31;;;;;;;108.13;55.20;;;18.20;99.90;;;;;;5097888;28;20831;-76
2021/06/04 04:32:00;;;;;;;83.13;49.60;;;18.20;99.90;;;;;;5094507;28;20463;-73
2021/06/04 04:34:29;;;;;;;689.93;65.07;;;18.10;99.90;;;;;;5100646;28;20517;-76
2021/06/04 04:37:01;;;;;;;543.27;61.50;;;18.00;99.90;;;;;;5099905;28;20734;-75
2021/06/04 04:39:31;;;;;;;83.27;47.87;;;18.00;99.90;;;;;;5099466;28;20947;-73
2021/06/04 04:41:59;;;;;;;140.03;57.50;;;18.00;99.90;;;;;;5094264;28;20785;-78
2021/06/04 04:44:30;;;;;;;114.27;55.70;;;18.00;99.90;;;;;;5098374;28;20472;-73
2021/06/04 04:46:57;;;;;;;67.90;54.97;;;18.20;99.90;;;;;;5097323;28;20508;-76
2021/06/04 04:49:24;;;;;;;72.27;55.40;;;18.30;99.90;;;;;;5099247;28;21013;-75
2021/06/04 04:51:51;;;;;;;82.53;59.17;;;18.40;99.90;;;;;;5103035;28;20810;-75
2021/06/04 04:54:18;;;;;;;75.77;60.07;;;18.50;99.90;;;;;;5096305;28;20465;-73
2021/06/04 04:56:47;;;;;;;85.77;58.63;;;18.50;99.90;;;;;;5098357;28;20469;-78
2021/06/04 04:59:15;;;;;;;77.27;59.77;;;18.60;99.90;;;;;;5101544;28;20468;-74
2021/06/04 05:01:43;;;;;;;82.60;62.07;;;18.60;99.90;;;;;;5095540;28;20842;-76
2021/06/04 05:04:09;;;;;;;81.97;59.67;;;18.60;99.90;;;;;;5102335;28;20886;-77
2021/06/04 05:06:37;;;;;;;82.33;60.50;;;18.60;99.90;;;;;;5098158;28;20457;-75
2021/06/04 05:09:05;;;;;;;87.17;64.43;;;18.60;99.90;;;;;;5093976;28;20462;-73
2021/06/04 05:11:31;;;;;;;92.40;64.53;;;18.50;99.90;;;;;;5100222;28;20488;-73
2021/06/04 05:13:57;;;;;;;84.73;64.03;;;18.50;99.90;;;;;;5101498;28;20466;-73
2021/06/04 05:16:25;;;;;;;81.10;61.67;;;18.60;99.90;;;;;;5095588;28;20502;-78
2021/06/04 05:18:52;;;;;;;88.77;62.90;;;18.40;99.90;;;;;;5097919;28;20464;-76
2021/06/04 05:21:19;;;;;;;90.47;65.13;;;18.40;99.90;;;;;;5097083;28;20505;-73
2021/06/04 05:23:46;;;;;;;82.67;62.10;;;18.50;99.90;;;;;;5096494;28;20461;-72
2021/06/04 05:26:13;;;;;;;81.87;63.93;;;18.60;99.90;;;;;;5102565;27;20492;-76
2021/06/04 05:28:41;;;;;;;86.53;65.20;;;18.60;99.90;;;;;;5094971;28;20965;-73
2021/06/04 05:31:11;;;;;;;91.40;65.40;;;18.60;99.90;;;;;;5100369;28;20920;-73
2021/06/04 05:33:42;;;;;;;83.07;64.40;;;18.80;99.90;;;;;;5099330;28;20869;-75
2021/06/04 05:36:11;;;;;;;84.60;68.07;;;18.90;99.90;;;;;;5097895;28;20458;-73
2021/06/04 05:38:38;;;;;;;93.40;72.17;;;19.00;99.90;;;;;;5100516;28;20578;-74
2021/06/04 05:41:05;;;;;;;88.00;67.87;;;19.10;99.90;;;;;;5098616;27;20546;-75
2021/06/04 05:43:33;;;;;;;91.93;65.93;;;19.10;99.90;;;;;;5097797;28;20465;-73
2021/06/04 05:46:01;;;;;;;93.40;67.20;;;19.10;99.90;;;;;;5098809;28;21050;-73
2021/06/04 05:48:28;;;;;;;95.07;69.70;;;19.10;99.90;;;;;;5097824;28;20489;-73
2021/06/04 05:50:59;;;;;;;98.87;69.70;;;19.10;99.90;;;;;;5092465;28;20466;-72
2021/06/04 05:53:28;;;;;;;91.73;67.00;;;19.20;99.90;;;;;;5099888;28;20465;-73
2021/06/04 05:55:56;;;;;;;95.33;70.40;;;19.30;99.90;;;;;;5098015;28;20460;-72
2021/06/04 05:58:25;;;;;;;91.23;69.17;;;19.40;99.90;;;;;;5103191;28;20958;-76
2021/06/04 06:00:55;;;;;;;107.10;73.87;;;19.50;99.90;;;;;;5097134;28;21044;-74
2021/06/04 06:03:27;;;;;;;92.60;69.10;;;19.60;99.90;;;;;;5089161;28;20478;-72
2021/06/04 06:05:53;;;;;;;91.90;69.17;;;19.70;99.90;;;;;;5102111;28;20491;-75
2021/06/04 06:08:21;;;;;;;93.33;71.37;;;19.80;99.90;;;;;;5096119;28;20514;-75
2021/06/04 06:10:48;;;;;;;97.63;70.87;;;19.90;99.90;;;;;;5101457;28;20826;-75
2021/06/04 06:13:14;;;;;;;93.17;66.20;;;20.10;99.90;;;;;;5100401;28;20457;-75
2021/06/04 06:15:42;;;;;;;88.70;68.27;;;20.30;99.90;;;;;;5098343;28;21009;-73
2021/06/04 06:18:09;;;;;;;87.80;68.30;;;20.30;99.90;;;;;;5102341;27;20925;-76
2021/06/04 06:20:38;;;;;;;81.77;64.17;;;20.50;99.90;;;;;;5102198;28;20643;-76
2021/06/04 06:23:06;;;;;;;78.20;65.60;;;20.60;99.90;;;;;;5096580;28;20466;-73
2021/06/04 06:25:36;;;;;;;76.83;61.33;;;20.80;99.90;;;;;;5096044;28;20563;-73
2021/06/04 06:28:04;;;;;;;80.23;60.13;;;20.90;99.90;;;;;;5096692;28;20514;-73
2021/06/04 06:30:33;;;;;;;79.63;60.50;;;21.00;99.90;;;;;;5097837;27;20570;-73
2021/06/04 06:32:59;;;;;;;74.37;61.07;;;21.00;99.90;;;;;;5103637;28;20457;-72
2021/06/04 06:35:28;;;;;;;68.67;58.00;;;21.00;99.90;;;;;;5099995;27;20457;-73
2021/06/04 06:37:55;;;;;;;64.90;56.90;;;21.20;99.90;;;;;;5102353;28;20477;-73
2021/06/04 06:40:22;;;;;;;65.17;54.13;;;21.30;99.90;;;;;;5098928;28;20493;-72
2021/06/04 06:42:50;;;;;;;58.30;51.10;;;21.40;99.90;;;;;;5100414;28;20540;-76
2021/06/04 06:45:17;;;;;;;63.63;52.33;;;21.40;99.90;;;;;;5092135;28;20510;-73
2021/06/04 06:47:43;;;;;;;64.40;50.57;;;21.60;99.90;;;;;;5094734;28;20968;-72
2021/06/04 06:50:12;;;;;;;62.50;50.17;;;21.70;99.90;;;;;;5097325;28;20469;-74
2021/06/04 06:52:39;;;;;;;53.60;48.10;;;21.90;99.90;;;;;;5099010;28;20969;-73
2021/06/04 06:55:08;;;;;;;54.20;47.80;;;22.10;99.90;;;;;;5094324;28;21069;-73
2021/06/04 06:57:34;;;;;;;52.47;46.97;;;22.10;99.90;;;;;;5093627;28;20493;-75
2021/06/04 07:00:06;;;;;;;54.43;48.07;;;22.10;99.90;;;;;;5100751;28;20514;-76
2021/06/04 07:02:33;;;;;;;50.17;44.97;;;22.40;99.90;;;;;;5101895;28;20488;-77
2021/06/04 07:04:59;;;;;;;50.33;45.37;;;22.60;99.90;;;;;;5096858;28;20457;-76
2021/06/04 07:11:25;;;;;;;50.23;44.83;;;22.90;99.90;;;;;;5092634;28;20433;-74
2021/06/04 07:17:15;;;;;;;51.90;42.00;;;23.20;99.90;;;;;;5101470;28;20464;-74
2021/06/04 07:19:42;;;;;;;46.77;42.07;;;23.30;99.90;;;;;;5094514;28;20951;-74
2021/06/04 07:29:01;;;;;;;50.17;44.87;;;23.90;99.90;;;;;;5096671;28;20435;-74
2021/06/04 07:31:28;;;;;;;51.20;46.17;;;24.10;99.90;;;;;;5097890;28;20455;-75
2021/06/04 07:33:58;;;;;;;53.20;47.60;;;24.30;99.90;;;;;;5098575;28;20466;-74
2021/06/04 07:36:28;;;;;;;50.60;45.47;;;24.40;99.90;;;;;;5099120;28;20469;-74
2021/06/04 07:38:55;;;;;;;45.50;40.97;;;24.60;99.90;;;;;;5097903;28;20484;-75
2021/06/04 07:41:22;;;;;;;45.77;41.30;;;25.00;99.90;;;;;;5092732;28;20454;-74
2021/06/04 07:43:49;;;;;;;50.53;45.10;;;25.30;99.90;;;;;;5094733;28;20465;-74
2021/06/04 07:46:19;;;;;;;50.93;45.40;;;25.50;99.90;;;;;;5091609;28;20968;-75
2021/06/04 07:48:46;;;;;;;49.53;44.23;;;25.20;99.90;;;;;;5103748;28;20489;-74
2021/06/04 07:51:17;;;;;;;51.83;46.40;;;25.60;99.90;;;;;;5097983;28;20449;-76
2021/06/04 07:53:43;;;;;;;51.53;44.60;;;25.70;99.90;;;;;;5095242;28;20458;-74
2021/06/04 07:56:13;;;;;;;53.80;48.40;;;25.70;99.90;;;;;;5094174;28;20544;-75
2021/06/04 07:58:40;;;;;;;48.73;44.13;;;25.80;99.90;;;;;;5100874;28;20979;-75
2021/06/04 08:01:08;;;;;;;54.40;48.63;;;26.30;99.90;;;;;;5094418;28;20465;-77
2021/06/04 08:03:35;;;;;;;52.27;47.27;;;26.60;99.90;;;;;;5103114;28;20835;-77
2021/06/04 08:06:03;;;;;;;48.37;43.67;;;27.00;99.90;;;;;;5096361;28;20775;-77
2021/06/04 08:08:31;;;;;;;48.87;43.83;;;27.20;99.90;;;;;;5094613;28;20453;-74
2021/06/04 08:10:58;;;;;;;52.00;46.80;;;27.90;99.90;;;;;;5097011;28;20461;-75
2021/06/04 08:13:25;;;;;;;52.03;47.13;;;28.20;99.90;;;;;;5100948;28;20464;-77
2021/06/04 08:15:56;;;;;;;53.37;48.40;;;28.00;99.90;;;;;;5103584;28;20477;-75
2021/06/04 08:18:34;;;;;;;53.17;48.10;;;28.10;99.90;;;;;;5084259;28;20489;-75
2021/06/04 08:21:04;;;;;;;51.93;47.03;;;28.70;99.90;;;;;;5090434;28;20460;-74
2021/06/04 08:23:34;;;;;;;51.03;46.20;;;29.40;99.90;;;;;;5094917;28;20461;-77
2021/06/04 08:26:03;;;;;;;48.70;43.90;;;29.80;99.90;;;;;;5097049;28;20465;-75
2021/06/04 08:28:51;;;;;;;50.90;46.23;;;30.20;99.90;;;;;;5092932;28;20470;-75
2021/06/04 08:31:50;;;;;;;44.40;40.40;;;29.90;99.90;;;;;;5092292;28;20454;-75
2021/06/04 08:34:49;;;;;;;45.80;41.73;;;30.00;99.90;;;;;;5096881;28;20557;-74
2021/06/04 08:41:01;;;;;;;43.80;39.93;;;30.80;99.90;;;;;;5092330;28;20560;-74
2021/06/04 08:47:14;;;;;;;;;;;;;;;;;;;;;
2021/06/04 08:56:31;;;;;;;41.50;37.73;;;31.50;99.90;;;;;;4946804;28;20472;-75
2021/06/04 09:13:41;;;;;;;44.57;40.43;;;32.90;99.90;;;;;;5010683;28;21027;-78
2021/06/04 09:30:20;;;;;;;44.50;40.30;;;31.40;99.90;;;;;;5068352;28;20479;-76
2021/06/04 09:39:39;;;;;;;37.20;33.77;;;31.60;99.90;;;;;;5096247;28;20437;-75
2021/06/04 09:42:15;;;;;;;33.60;31.00;;;32.30;99.90;;;;;;5086659;28;20453;-75
2021/06/04 09:44:53;;;;;;;36.97;33.57;;;33.40;99.90;;;;;;5095943;28;21001;-74
2021/06/04 09:48:09;;;;;;;32.20;29.57;;;33.40;99.90;;;;;;5092339;28;20835;-74
2021/06/04 09:50:42;;;;;;;34.33;31.23;;;33.60;99.90;;;;;;5097610;28;20453;-74
2021/06/04 09:53:12;;;;;;;34.70;31.67;;;34.80;99.10;;;;;;5088117;28;20516;-74
2021/06/04 09:55:41;;;;;;;33.43;30.10;;;35.30;98.20;;;;;;5088062;28;20544;-73
2021/06/04 09:58:22;;;;;;;34.27;31.37;;;35.80;97.50;;;;;;5097227;28;20488;-75
2021/06/04 10:04:01;;;;;;;33.00;29.97;;;35.00;96.50;;;;;;5031703;28;20484;-72
2021/06/04 10:06:42;;;;;;;39.17;35.70;;;35.00;97.40;;;;;;5077445;28;20454;-73
2021/06/04 10:09:28;;;;;;;34.77;32.13;;;35.20;96.30;;;;;;5081788;28;20462;-73
2021/06/04 10:11:59;;;;;;;32.60;29.97;;;35.10;97.20;;;;;;5078154;28;20824;-74
2021/06/04 10:14:48;;;;;;;34.43;31.40;;;35.80;96.70;;;;;;5072516;28;20546;-73
2021/06/04 10:17:43;;;;;;;29.77;27.57;;;36.50;94.00;;;;;;5075319;28;20485;-74
2021/06/04 10:20:43;;;;;;;31.63;29.27;;;36.30;93.00;;;;;;5058527;28;20969;-73
2021/06/04 10:23:16;;;;;;;31.07;28.30;;;36.50;92.10;;;;;;5072005;28;20500;-73
2021/06/04 10:29:16;;;;;;;32.13;29.13;;;34.90;91.30;;;;;;4890417;29;20531;-73
2021/06/04 10:31:50;;;;;;;34.77;31.03;;;33.50;94.40;;;;;;4976678;28;21771;-73
2021/06/04 10:34:38;;;;;;;30.40;27.77;;;32.90;94.60;;;;;;5077033;28;20470;-72
2021/06/04 10:37:09;;;;;;;27.97;25.20;;;32.80;94.00;;;;;;5057187;28;20466;-73
2021/06/04 10:39:42;;;;;;;26.60;24.70;;;33.20;93.70;;;;;;5074970;28;20481;-75
2021/06/04 10:42:17;;;;;;;29.33;26.83;;;34.50;93.50;;;;;;5073501;28;20462;-74
2021/06/04 10:44:51;;;;;;;29.47;27.13;;;36.10;91.00;;;;;;5080867;28;20457;-73
2021/06/04 10:47:27;;;;;;;28.00;25.67;;;36.90;89.20;;;;;;5089422;28;20461;-75
2021/06/04 10:50:09;;;;;;;23.73;22.03;;;36.80;86.70;;;;;;5089221;28;20495;-76
2021/06/04 10:52:51;;;;;;;25.43;23.20;;;36.50;88.50;;;;;;5088239;28;20492;-75
2021/06/04 10:55:23;;;;;;;36.17;33.40;;;36.60;87.60;;;;;;5093721;28;20751;-75
2021/06/04 10:57:55;;;;;;;24.83;22.93;;;37.60;88.60;;;;;;5097099;28;20497;-76
2021/06/04 11:00:27;;;;;;;37.20;34.23;;;37.60;86.30;;;;;;5093830;28;20997;-73
2021/06/04 11:03:06;;;;;;;38.30;34.83;;;38.10;88.10;;;;;;5088372;28;20457;-73
2021/06/04 11:05:55;;;;;;;35.93;32.43;;;36.70;90.30;;;;;;5094809;28;20733;-73
2021/06/04 11:08:32;;;;;;;38.03;34.63;;;35.90;91.10;;;;;;5086203;28;20465;-73
2021/06/04 11:11:07;;;;;;;40.90;37.20;;;35.40;91.40;;;;;;5087775;28;20474;-76
2021/06/04 11:13:47;;;;;;;39.17;35.70;;;34.50;92.20;;;;;;5087113;28;20468;-76
2021/06/04 11:16:22;;;;;;;39.23;35.77;;;33.10;93.70;;;;;;5094799;28;20469;-74
2021/06/04 11:18:52;;;;;;;39.07;35.60;;;32.60;94.90;;;;;;5095404;28;20481;-77
2021/06/04 11:21:27;;;;;;;41.07;37.27;;;31.70;97.30;;;;;;5093589;28;20469;-74
2021/06/04 11:23:59;;;;;;;39.53;35.97;;;30.90;98.10;;;;;;5093784;28;20575;-74
2021/06/04 11:26:31;;;;;;;37.33;33.80;;;30.30;99.50;;;;;;5100571;28;20457;-77
2021/06/04 11:29:02;;;;;;;37.67;34.37;;;30.00;99.90;;;;;;5091190;28;20491;-73
2021/06/04 11:31:59;;;;;;;34.53;31.70;;;29.70;99.90;;;;;;5087878;28;21041;-75
2021/06/04 11:34:41;;;;;;;36.03;32.97;;;29.70;99.90;;;;;;5087969;28;20533;-75
2021/06/04 11:37:11;;;;;;;36.53;33.23;;;30.20;99.90;;;;;;5094587;28;20453;-74
2021/06/04 11:39:41;;;;;;;35.37;32.43;;;30.00;99.90;;;;;;5093874;28;20453;-79
2021/06/04 11:42:11;;;;;;;36.00;32.90;;;29.90;99.90;;;;;;5093228;28;20513;-79
2021/06/04 11:44:44;;;;;;;34.07;30.97;;;30.00;99.90;;;;;;5098435;28;20834;-78
2021/06/04 11:47:32;;;;;;;35.43;32.07;;;30.10;99.90;;;;;;5092358;28;20456;-74
2021/06/04 11:50:35;;;;;;;33.97;30.97;;;29.90;99.90;;;;;;5093973;28;20465;-79
2021/06/04 11:53:32;;;;;;;35.50;32.50;;;30.00;99.90;;;;;;5090842;28;20457;-75
2021/06/04 11:55:59;;;;;;;35.10;32.13;;;29.70;99.90;;;;;;5094422;28;20904;-78
2021/06/04 11:58:49;;;;;;;36.70;33.27;;;29.50;99.90;;;;;;5099234;28;20484;-79
2021/06/04 12:01:41;;;;;;;36.30;32.80;;;29.90;99.90;;;;;;5097999;28;20823;-78
2021/06/04 12:04:11;;;;;;;42.50;38.07;;;29.60;99.90;;;;;;5087544;28;20484;-75
2021/06/04 12:06:54;;;;;;;36.07;32.83;;;30.00;99.90;;;;;;5094042;28;20465;-75
2021/06/04 12:09:53;;;;;;;36.40;33.20;;;29.90;99.90;;;;;;5091499;28;20511;-76
2021/06/04 12:12:58;;;;;;;36.60;33.00;;;29.50;99.90;;;;;;5100939;28;21395;-79
2021/06/04 12:15:46;;;;;;;33.20;30.50;;;29.40;99.90;;;;;;5095564;28;20842;-75
2021/06/04 12:18:51;;;;;;;31.53;29.13;;;29.90;99.90;;;;;;5098345;28;20457;-75
2021/06/04 12:21:55;;;;;;;33.43;30.70;;;30.30;99.90;;;;;;5095069;28;20465;-76
2021/06/04 12:24:48;;;;;;;34.07;31.10;;;30.30;99.90;;;;;;5090656;28;20900;-76
2021/06/04 12:27:45;;;;;;;34.30;31.57;;;30.20;99.90;;;;;;5092338;28;20466;-77
2021/06/04 12:30:31;;;;;;;35.20;32.13;;;30.60;99.90;;;;;;5094625;28;21360;-79
2021/06/04 12:33:04;;;;;;;37.50;32.83;;;30.30;99.90;;;;;;5097221;28;20476;-81
2021/06/04 12:35:41;;;;;;;36.07;33.13;;;29.90;99.90;;;;;;5096384;28;20532;-76
2021/06/04 12:38:32;;;;;;;35.47;32.47;;;30.20;99.90;;;;;;5093477;28;20465;-77
2021/06/04 12:41:00;;;;;;;34.67;31.67;;;30.60;99.90;;;;;;5096595;28;20464;-76
2021/06/04 12:43:30;;;;;;;36.57;33.70;;;30.90;99.90;;;;;;5097007;28;20552;-82
2021/06/04 12:46:00;;;;;;;37.83;34.63;;;30.40;99.00;;;;;;5097024;28;20491;-76
2021/06/04 12:48:31;;;;;;;37.70;34.20;;;30.40;99.40;;;;;;5095905;28;20485;-77
2021/06/04 12:51:12;;;;;;;35.10;32.23;;;30.40;99.20;;;;;;5101321;28;20462;-78
2021/06/04 12:53:40;;;;;;;35.60;32.70;;;30.60;99.90;;;;;;5096218;28;20541;-76
2021/06/04 12:56:16;;;;;;;32.33;29.53;;;30.80;99.70;;;;;;5094486;27;20491;-76
2021/06/04 12:58:47;;;;;;;32.43;29.47;;;30.90;99.80;;;;;;5094316;28;20560;-84
2021/06/04 13:01:16;;;;;;;35.07;31.50;;;30.80;99.90;;;;;;5094683;28;20454;-77
2021/06/04 13:03:47;;;;;;;32.10;29.03;;;30.80;99.60;;;;;;5099495;28;20959;-81
2021/06/04 13:06:18;;;;;;;33.50;30.80;;;31.00;99.90;;;;;;5098687;28;21144;-76
2021/06/04 13:08:48;;;;;;;33.70;30.90;;;30.60;98.60;;;;;;5097210;28;20497;-76
2021/06/04 13:11:33;;;;;;;33.57;30.53;;;30.90;99.60;;;;;;5103757;28;20449;-83
2021/06/04 13:13:59;;;;;;;33.43;30.53;;;31.00;99.90;;;;;;5102103;27;20468;-86
2021/06/04 13:16:28;;;;;;;31.87;28.73;;;30.60;99.90;;;;;;5099445;28;20827;-79
2021/06/04 13:19:08;;;;;;;32.10;29.50;;;30.60;99.90;;;;;;5095330;28;20938;-82
2021/06/04 13:21:38;;;;;;;31.50;28.60;;;30.60;99.70;;;;;;5088995;28;20457;-76
2021/06/04 13:24:12;;;;;;;29.37;27.00;;;31.00;99.70;;;;;;5095071;28;20465;-77
2021/06/04 13:26:40;;;;;;;28.93;26.17;;;30.80;99.10;;;;;;5091643;28;20466;-81
2021/06/04 13:29:11;;;;;;;28.17;26.00;;;31.00;99.80;;;;;;5093014;28;20485;-78
2021/06/04 13:31:42;;;;;;;26.57;24.40;;;31.70;99.70;;;;;;5089711;28;20453;-81
2021/06/04 13:34:14;;;;;;;30.27;27.50;;;32.70;97.30;;;;;;5094274;28;20464;-77
2021/06/04 13:36:42;;;;;;;26.43;24.57;;;32.60;96.70;;;;;;5090730;28;20951;-78
2021/06/04 13:39:13;;;;;;;27.97;25.87;;;34.00;96.80;;;;;;5099614;28;20457;-81
2021/06/04 13:41:46;;;;;;;30.37;27.73;;;35.40;94.10;;;;;;5092596;28;21043;-79
2021/06/04 13:44:17;;;;;;;30.53;27.70;;;36.60;91.20;;;;;;5097750;28;20526;-79
2021/06/04 13:46:46;;;;;;;27.63;25.43;;;38.20;90.50;;;;;;5093768;28;21145;-79
2021/06/04 13:49:29;;;;;;;29.50;27.20;;;37.70;87.50;;;;;;5092669;28;20529;-79
2021/06/04 13:51:57;;;;;;;27.33;25.10;;;36.80;86.80;;;;;;5097455;28;20905;-80
2021/06/04 13:54:26;;;;;;;30.13;27.87;;;37.10;86.90;;;;;;5095901;28;20472;-79
2021/06/04 13:56:53;;;;;;;34.27;31.70;;;36.80;87.10;;;;;;5104823;27;20833;-81
2021/06/04 13:59:30;;;;;;;31.47;29.17;;;37.20;82.90;;;;;;5101819;28;20461;-82
2021/06/04 14:02:29;;;;;;;32.17;29.27;;;37.00;83.70;;;;;;5096898;28;20914;-81
2021/06/04 14:05:12;;;;;;;31.80;29.13;;;36.30;83.30;;;;;;5088843;28;20487;-81